Edinburg, New York
Current Conditions -  °F | °C
As of 4:55 PM on Sunday 25 Jan 2015 (Local Time) from KNY0 Reporting Station
Clear Clear  
Wind Chill: -17°   Ceiling: Unl
Heat Index: -10°   Visibility: 10mi
Dew Point: -17°   Wind: 12mph
Humidity: 55%   Direction: 280°W
Pressure: 29.88"   Gusts: NA
Location:  43.2819°N, 74.3419°W
Report Text: KNY0 252155Z AUTO 28010KT 10SM CLR M09/M17 A2988 RMK AO2 T10951171
Loading
Personal Weather Stations






























Interactive Weather Map New forecast layout! Learn more

10-Day Weather Forecast

Advertisements
Track Severe Weather on mobile